createdAt,value
2017-04-02T00:00:24.763Z,44.71
2017-04-02T00:01:35.004Z,44.81
2017-04-02T00:02:44.942Z,44.9
2017-04-02T00:03:55.189Z,44.81
2017-04-02T00:05:05.430Z,44.13
2017-04-02T00:06:15.672Z,44.81
2017-04-02T00:07:25.921Z,44.71
2017-04-02T00:08:35.848Z,44.81
2017-04-02T00:09:46.088Z,44.81
2017-04-02T00:10:56.332Z,44.71
2017-04-02T00:12:06.582Z,44.13
2017-04-02T00:13:16.510Z,44.42
2017-04-02T00:14:26.770Z,44.13
2017-04-02T00:15:36.699Z,44.13
2017-04-02T00:16:46.634Z,44.42
2017-04-02T00:17:56.562Z,43.75
2017-04-02T00:19:06.807Z,44.62
2017-04-02T00:20:17.046Z,44.32
2017-04-02T00:21:27.286Z,44.13
2017-04-02T00:22:37.530Z,44.32
2017-04-02T00:23:47.461Z,44.23
2017-04-02T00:24:57.698Z,43.94
2017-04-02T00:26:07.938Z,44.04
2017-04-02T00:27:18.173Z,44.13
2017-04-02T00:28:28.103Z,43.94
2017-04-02T00:29:38.342Z,44.13
2017-04-02T00:30:48.284Z,44.04
2017-04-02T00:31:58.214Z,44.13
2017-04-02T00:33:08.138Z,43.85
2017-04-02T00:34:17.765Z,44.13
2017-04-02T00:35:28.007Z,44.04
2017-04-02T00:36:38.258Z,43.94
2017-04-02T00:37:47.872Z,44.32
2017-04-02T00:38:57.171Z,44.21
2017-04-02T00:40:07.460Z,44.31
2017-04-02T00:41:17.080Z,44.32
2017-04-02T00:42:27.019Z,44.04
2017-04-02T00:43:36.943Z,43.65
2017-04-02T00:44:47.183Z,43.55
2017-04-02T00:45:57.433Z,43.73
2017-04-02T00:47:07.677Z,43.85
2017-04-02T00:48:17.607Z,43.94
2017-04-02T00:49:27.538Z,44.11
2017-04-02T00:50:37.464Z,43.65
2017-04-02T00:51:47.393Z,43.82
2017-04-02T00:52:57.635Z,43.73
2017-04-02T00:54:07.877Z,43.65
2017-04-02T00:55:18.120Z,43.85
2017-04-02T00:56:28.051Z,43.55
2017-04-02T00:57:38.302Z,44.04
2017-04-02T00:58:48.566Z,43.65
2017-04-02T00:59:58.801Z,43.55
2017-04-02T01:01:08.731Z,43.65
2017-04-02T01:02:18.663Z,43.92
2017-04-02T01:03:28.279Z,43.75
2017-04-02T01:04:38.203Z,43.82
2017-04-02T01:05:48.440Z,43.85
2017-04-02T01:06:58.058Z,43.75
2017-04-02T01:08:07.683Z,43.73
2017-04-02T01:09:17.614Z,43.85
2017-04-02T01:10:27.542Z,43.92
2017-04-02T01:11:37.471Z,43.73
2017-04-02T01:12:47.713Z,43.82
2017-04-02T01:13:57.641Z,43.27
2017-04-02T01:15:07.565Z,43.65
2017-04-02T01:16:17.497Z,43.55
2017-04-02T01:17:27.742Z,43.55
2017-04-02T01:18:37.984Z,43.63
2017-04-02T01:19:47.910Z,43.44
2017-04-02T01:20:57.840Z,43.44
2017-04-02T01:22:07.469Z,43.55
2017-04-02T01:23:17.402Z,43.54
2017-04-02T01:24:27.332Z,43.34
2017-04-02T01:25:37.261Z,43.15
2017-04-02T01:26:47.503Z,43.44
2017-04-02T01:27:57.744Z,43.15
2017-04-02T01:29:07.987Z,43.15
2017-04-02T01:30:17.911Z,43.15
2017-04-02T01:31:28.190Z,43.15
2017-04-02T01:32:38.437Z,43.15
2017-04-02T01:33:48.679Z,43.07
2017-04-02T01:34:58.921Z,43.07
2017-04-02T01:36:09.163Z,43.27
2017-04-02T01:37:19.409Z,43.15
2017-04-02T01:38:29.331Z,43.34
2017-04-02T01:39:39.258Z,43.05
2017-04-02T01:40:49.503Z,42.86
2017-04-02T01:41:59.749Z,43.24
2017-04-02T01:43:09.987Z,43.15
2017-04-02T01:44:20.224Z,43.34
2017-04-02T01:45:30.471Z,43.15
2017-04-02T01:46:40.402Z,43.15
2017-04-02T01:47:50.646Z,42.76
2017-04-02T01:49:00.890Z,43.24
2017-04-02T01:50:11.145Z,42.76
2017-04-02T01:51:21.391Z,42.76
2017-04-02T01:52:31.318Z,42.86
2017-04-02T01:53:41.560Z,43.05
2017-04-02T01:54:51.805Z,42.96
2017-04-02T01:56:01.422Z,42.67
2017-04-02T01:57:11.352Z,42.96
2017-04-02T01:58:21.286Z,42.96
2017-04-02T01:59:31.533Z,42.96
2017-04-02T02:00:41.775Z,42.96
2017-04-02T02:01:52.022Z,42.76
2017-04-02T02:03:01.637Z,42.57
2017-04-02T02:04:11.877Z,42.76
2017-04-02T02:05:21.802Z,42.86
2017-04-02T02:06:32.044Z,42.76
2017-04-02T02:07:41.657Z,42.76
2017-04-02T02:08:51.902Z,42.57
2017-04-02T02:10:02.139Z,42.67
2017-04-02T02:11:12.381Z,42.57
2017-04-02T02:12:22.623Z,42.76
2017-04-02T02:13:32.246Z,42.86
2017-04-02T02:14:42.484Z,42.57
2017-04-02T02:15:52.724Z,43.05
2017-04-02T02:17:02.964Z,42.76
2017-04-02T02:18:13.205Z,42.57
2017-04-02T02:19:23.132Z,42.57
2017-04-02T02:20:33.075Z,42.38
2017-04-02T02:21:43.003Z,42.47
2017-04-02T02:22:53.245Z,42.19
2017-04-02T02:24:02.860Z,42.47
2017-04-02T02:25:12.486Z,42.47
2017-04-02T02:26:22.756Z,42.28
2017-04-02T02:27:32.686Z,42.47
2017-04-02T02:28:42.928Z,42.57
2017-04-02T02:29:53.163Z,42.19
2017-04-02T02:31:03.404Z,42.47
2017-04-02T02:32:13.649Z,42.38
2017-04-02T02:33:23.895Z,42.28
2017-04-02T02:34:34.144Z,42.09
2017-04-02T02:35:44.389Z,42.38
2017-04-02T02:36:54.667Z,42.19
2017-04-02T02:38:04.597Z,42.28
2017-04-02T02:39:14.532Z,42.28
2017-04-02T02:40:24.786Z,41.99
2017-04-02T02:41:34.442Z,42.09
2017-04-02T02:42:44.373Z,41.89
2017-04-02T02:43:54.613Z,42.19
2017-04-02T02:45:04.554Z,42.09
2017-04-02T02:46:14.795Z,41.99
2017-04-02T02:47:24.723Z,41.99
2017-04-02T02:48:35.000Z,42.19
2017-04-02T02:49:44.612Z,41.99
2017-04-02T02:50:54.851Z,41.99
2017-04-02T02:52:05.092Z,42.09
2017-04-02T02:53:15.343Z,42.09
2017-04-02T02:54:25.584Z,42.19
2017-04-02T02:55:35.839Z,42.09
2017-04-02T02:56:46.086Z,42.09
2017-04-02T02:57:56.328Z,42.19
2017-04-02T02:59:06.567Z,42.09
2017-04-02T03:00:16.803Z,41.71
2017-04-02T03:01:26.418Z,41.8
2017-04-02T03:02:36.687Z,41.99
2017-04-02T03:03:46.925Z,41.51
2017-04-02T03:04:57.168Z,41.89
2017-04-02T03:06:07.414Z,41.89
2017-04-02T03:07:17.027Z,41.71
2017-04-02T03:08:26.961Z,41.71
2017-04-02T03:09:36.888Z,41.61
2017-04-02T03:10:46.823Z,41.71
2017-04-02T03:11:56.764Z,41.99
2017-04-02T03:13:06.372Z,41.32
2017-04-02T03:14:16.303Z,41.51
2017-04-02T03:15:26.230Z,41.71
2017-04-02T03:16:36.478Z,41.71
2017-04-02T03:17:46.412Z,41.51
2017-04-02T03:18:56.663Z,41.41
2017-04-02T03:20:06.903Z,41.61
2017-04-02T03:21:17.168Z,41.41
2017-04-02T03:22:27.418Z,41.71
2017-04-02T03:23:37.663Z,41.41
2017-04-02T03:24:47.588Z,41.51
2017-04-02T03:25:57.831Z,41.41
2017-04-02T03:27:08.065Z,41.41
2017-04-02T03:28:17.989Z,41.32
2017-04-02T03:29:28.240Z,41.41
2017-04-02T03:30:38.165Z,41.51
2017-04-02T03:31:48.094Z,41.8
2017-04-02T03:32:58.334Z,41.32
2017-04-02T03:34:08.575Z,41.8
2017-04-02T03:35:18.189Z,41.8
2017-04-02T03:36:28.428Z,41.41
2017-04-02T03:37:38.040Z,41.13
2017-04-02T03:38:47.995Z,41.22
2017-04-02T03:39:58.274Z,41.13
2017-04-02T03:41:08.205Z,41.13
2017-04-02T03:42:18.134Z,41.32
2017-04-02T03:43:27.746Z,41.03
2017-04-02T03:44:38.030Z,41.32
2017-04-02T03:45:47.965Z,41.32
2017-04-02T03:46:58.210Z,41.13
2017-04-02T03:48:08.137Z,40.94
2017-04-02T03:49:18.385Z,41.32
2017-04-02T03:50:28.307Z,41.13
2017-04-02T03:51:37.643Z,41.13
2017-04-02T03:52:47.568Z,41.13
2017-04-02T03:53:57.812Z,41.22
2017-04-02T03:55:07.768Z,41.13
2017-04-02T03:56:18.008Z,40.94
2017-04-02T03:57:27.620Z,41.03
2017-04-02T03:58:37.545Z,41.13
2017-04-02T03:59:47.782Z,41.22
2017-04-02T04:00:57.719Z,41.41
2017-04-02T04:02:07.688Z,41.22
2017-04-02T04:03:17.613Z,41.03
2017-04-02T04:04:27.549Z,41.03
2017-04-02T04:05:37.475Z,41.13
2017-04-02T04:06:47.404Z,41.22
2017-04-02T04:07:57.644Z,41.22
2017-04-02T04:09:07.271Z,41.32
2017-04-02T04:10:17.514Z,41.03
2017-04-02T04:11:27.443Z,41.32
2017-04-02T04:12:37.371Z,41.32
2017-04-02T04:13:47.301Z,41.22
2017-04-02T04:14:57.555Z,41.32
2017-04-02T04:16:07.501Z,41.03
2017-04-02T04:17:17.737Z,41.22
2017-04-02T04:18:27.346Z,41.22
2017-04-02T04:19:37.584Z,41.13
2017-04-02T04:20:47.515Z,41.22
2017-04-02T04:21:57.445Z,41.22
2017-04-02T04:23:07.371Z,41.13
2017-04-02T04:24:17.302Z,41.13
2017-04-02T04:25:27.546Z,41.22
2017-04-02T04:26:37.482Z,41.32
2017-04-02T04:27:47.406Z,41.03
2017-04-02T04:28:57.334Z,41.32
2017-04-02T04:30:07.262Z,41.03
2017-04-02T04:31:17.231Z,41.32
2017-04-02T04:32:27.174Z,40.94
2017-04-02T04:33:37.421Z,41.03
2017-04-02T04:34:47.667Z,41.22
2017-04-02T04:35:57.907Z,40.74
2017-04-02T04:37:08.166Z,41.32
2017-04-02T04:38:18.414Z,41.03
2017-04-02T04:39:28.026Z,41.13
2017-04-02T04:40:38.265Z,41.22
2017-04-02T04:41:48.511Z,41.22
2017-04-02T04:42:58.435Z,41.22
2017-04-02T04:44:08.361Z,41.03
2017-04-02T04:45:18.613Z,41.13
2017-04-02T04:46:28.861Z,41.13
2017-04-02T04:47:37.860Z,41.41
2017-04-02T04:48:48.097Z,41.22
2017-04-02T04:49:58.029Z,40.94
2017-04-02T04:51:08.276Z,41.13
2017-04-02T04:52:18.514Z,40.84
2017-04-02T04:53:28.769Z,41.22
2017-04-02T04:54:39.015Z,41.32
2017-04-02T04:55:48.634Z,41.22
2017-04-02T04:56:58.879Z,41.22
2017-04-02T04:58:09.119Z,41.22
2017-04-02T04:59:19.358Z,40.74
2017-04-02T05:00:29.285Z,41.13
2017-04-02T05:01:39.220Z,41.13
2017-04-02T05:02:49.153Z,40.94
2017-04-02T05:03:59.079Z,41.32
2017-04-02T05:05:09.003Z,41.13
2017-04-02T05:06:19.242Z,41.13
2017-04-02T05:07:29.182Z,41.13
2017-04-02T05:08:39.138Z,41.32
2017-04-02T05:09:49.385Z,40.74
2017-04-02T05:10:59.636Z,41.32
2017-04-02T05:12:09.568Z,40.94
2017-04-02T05:13:19.187Z,41.22
2017-04-02T05:14:29.434Z,40.74
2017-04-02T05:15:39.676Z,41.32
2017-04-02T05:16:49.920Z,41.03
2017-04-02T05:17:59.852Z,41.22
2017-04-02T05:19:09.781Z,41.22
2017-04-02T05:20:20.023Z,41.13
2017-04-02T05:21:29.653Z,41.32
2017-04-02T05:22:38.968Z,41.03
2017-04-02T05:23:48.619Z,41.22
2017-04-02T05:24:58.862Z,41.03
2017-04-02T05:26:09.109Z,41.32
2017-04-02T05:27:19.040Z,41.41
2017-04-02T05:28:28.970Z,41.22
2017-04-02T05:29:39.249Z,41.32
2017-04-02T05:30:49.492Z,41.03
2017-04-02T05:31:59.746Z,41.41
2017-04-02T05:33:09.047Z,41.13
2017-04-02T05:34:18.976Z,41.32
2017-04-02T05:35:29.214Z,40.94
2017-04-02T05:36:39.461Z,41.22
2017-04-02T05:37:49.700Z,41.03
2017-04-02T05:38:59.990Z,41.13
2017-04-02T05:40:10.234Z,41.41
2017-04-02T05:41:20.169Z,41.51
2017-04-02T05:42:30.409Z,41.51
2017-04-02T05:43:40.336Z,40.94
2017-04-02T05:44:50.619Z,41.13
2017-04-02T05:46:00.547Z,41.13
2017-04-02T05:47:10.470Z,41.32
2017-04-02T05:48:20.402Z,41.22
2017-04-02T05:49:30.014Z,41.22
2017-04-02T05:50:39.937Z,41.22
2017-04-02T05:51:49.863Z,41.22
2017-04-02T05:52:59.796Z,41.41
2017-04-02T05:54:10.044Z,41.32
2017-04-02T05:55:19.659Z,41.41
2017-04-02T05:56:29.931Z,41.32
2017-04-02T05:57:39.861Z,41.51
2017-04-02T05:58:50.100Z,41.03
2017-04-02T06:00:00.031Z,41.22
2017-04-02T06:01:10.277Z,41.13
2017-04-02T06:02:20.513Z,41.2
2017-04-02T06:03:30.756Z,41.22
2017-04-02T06:04:40.995Z,40.94
2017-04-02T06:05:50.621Z,40.84
2017-04-02T06:07:00.552Z,41.13
2017-04-02T06:08:10.481Z,40.84
2017-04-02T06:09:20.410Z,41.22
2017-04-02T06:10:30.339Z,41.13
2017-04-02T06:11:39.964Z,41.32
2017-04-02T06:12:49.885Z,41.32
2017-04-02T06:14:00.132Z,41.13
2017-04-02T06:15:10.368Z,41.22
2017-04-02T06:16:19.986Z,41.03
2017-04-02T06:17:29.915Z,41.32
2017-04-02T06:18:40.152Z,41.13
2017-04-02T06:19:50.081Z,41.22
2017-04-02T06:21:00.321Z,41.41
2017-04-02T06:22:10.558Z,41.13
2017-04-02T06:23:20.488Z,40.94
2017-04-02T06:24:30.099Z,41.22
2017-04-02T06:25:40.367Z,40.94
2017-04-02T06:26:50.612Z,41.13
2017-04-02T06:28:00.853Z,41.03
2017-04-02T06:29:09.838Z,41.13
2017-04-02T06:30:20.078Z,41.13
2017-04-02T06:31:30.005Z,41.03
2017-04-02T06:32:39.933Z,40.94
2017-04-02T06:33:49.866Z,41.41
2017-04-02T06:35:00.112Z,41.22
2017-04-02T06:36:10.356Z,41.22
2017-04-02T06:37:19.978Z,41.51
2017-04-02T06:38:29.591Z,41.41
2017-04-02T06:39:39.830Z,41.32
2017-04-02T06:40:49.447Z,41.51
2017-04-02T06:41:59.067Z,41.22
2017-04-02T06:43:08.684Z,41.61
2017-04-02T06:44:18.303Z,41.51
2017-04-02T06:45:28.231Z,40.94
2017-04-02T06:46:38.160Z,41.13
2017-04-02T06:47:48.087Z,41.51
2017-04-02T06:48:58.017Z,41.61
2017-04-02T06:50:07.947Z,41.51
2017-04-02T06:51:17.873Z,41.71
2017-04-02T06:52:27.490Z,41.8
2017-04-02T06:53:37.735Z,41.8
2017-04-02T06:54:47.366Z,41.99
2017-04-02T06:55:57.625Z,41.99
2017-04-02T06:57:07.244Z,42.09
2017-04-02T06:58:17.178Z,41.89
2017-04-02T06:59:27.106Z,41.71
2017-04-02T07:00:36.729Z,41.61
2017-04-02T07:01:46.364Z,42.09
2017-04-02T07:02:56.607Z,42.19
2017-04-02T07:04:06.846Z,42.19
2017-04-02T07:05:16.463Z,42.09
2017-04-02T07:06:26.392Z,42.09
2017-04-02T07:07:36.320Z,41.71
2017-04-02T07:08:46.571Z,42.09
2017-04-02T07:09:56.546Z,41.8
2017-04-02T07:11:06.162Z,41.8
2017-04-02T07:12:16.400Z,41.61
2017-04-02T07:13:26.660Z,41.61
2017-04-02T07:14:36.904Z,41.61
2017-04-02T07:15:46.832Z,41.61
2017-04-02T07:16:56.758Z,41.71
2017-04-02T07:18:06.695Z,41.71
2017-04-02T07:19:16.629Z,41.61
2017-04-02T07:20:26.237Z,41.71
2017-04-02T07:21:36.476Z,41.51
2017-04-02T07:22:46.742Z,41.61
2017-04-02T07:23:56.989Z,41.41
2017-04-02T07:25:06.612Z,41.61
2017-04-02T07:26:16.234Z,41.51
2017-04-02T07:27:26.171Z,41.61
2017-04-02T07:28:36.097Z,41.51
2017-04-02T07:29:46.353Z,41.71
2017-04-02T07:30:56.592Z,41.61
2017-04-02T07:32:06.521Z,41.51
2017-04-02T07:33:16.448Z,41.51
2017-04-02T07:34:26.384Z,41.51
2017-04-02T07:35:36.666Z,41.32
2017-04-02T07:36:46.598Z,41.61
2017-04-02T07:37:56.840Z,41.8
2017-04-02T07:39:06.778Z,41.61
2017-04-02T07:40:16.401Z,41.61
2017-04-02T07:41:26.643Z,41.71
2017-04-02T07:42:36.570Z,41.61
2017-04-02T07:43:46.186Z,41.71
2017-04-02T07:44:56.430Z,41.32
2017-04-02T07:46:06.361Z,41.61
2017-04-02T07:47:16.293Z,41.99
2017-04-02T07:48:25.908Z,42.38
2017-04-02T07:49:36.155Z,41.51
2017-04-02T07:50:46.399Z,42.09
2017-04-02T07:51:56.644Z,42.19
2017-04-02T07:53:06.885Z,42.09
2017-04-02T07:54:16.810Z,42.09
2017-04-02T07:55:27.051Z,42.09
2017-04-02T07:56:36.992Z,42.19
2017-04-02T07:57:46.934Z,42.09
2017-04-02T07:58:57.178Z,42.09
2017-04-02T08:00:07.110Z,42.09
2017-04-02T08:01:17.356Z,42.19
2017-04-02T08:02:27.605Z,41.99
2017-04-02T08:03:37.223Z,42.09
2017-04-02T08:04:47.456Z,41.99
2017-04-02T08:05:56.767Z,42.09
2017-04-02T08:07:06.700Z,42.19
2017-04-02T08:08:16.948Z,41.99
2017-04-02T08:09:27.203Z,42.28
2017-04-02T08:10:36.819Z,42.28
2017-04-02T08:11:46.752Z,42.09
2017-04-02T08:12:56.677Z,42.09
2017-04-02T08:14:06.296Z,42.09
2017-04-02T08:15:16.539Z,42.09
2017-04-02T08:16:26.479Z,42.09
2017-04-02T08:17:36.429Z,42.38
2017-04-02T08:18:46.041Z,42.19
2017-04-02T08:19:55.961Z,42.28
2017-04-02T08:21:05.924Z,42.09
2017-04-02T08:22:15.853Z,42.19
2017-04-02T08:23:26.130Z,41.8
2017-04-02T08:24:36.370Z,42.28
2017-04-02T08:25:45.986Z,42.09
2017-04-02T08:26:56.226Z,41.92
2017-04-02T08:28:05.860Z,42.21
2017-04-02T08:29:15.787Z,42.3
2017-04-02T08:30:25.403Z,42.21
2017-04-02T08:31:35.647Z,42.11
2017-04-02T08:32:45.291Z,42.09
2017-04-02T08:33:55.219Z,42.28
2017-04-02T08:35:04.837Z,42.09
2017-04-02T08:36:14.471Z,42.21
2017-04-02T08:37:24.722Z,42.28
2017-04-02T08:38:34.647Z,42.09
2017-04-02T08:39:44.576Z,42.11
2017-04-02T08:40:54.511Z,42.28
2017-04-02T08:42:04.433Z,42.28
2017-04-02T08:43:14.049Z,42.28
2017-04-02T08:44:24.305Z,42.38
2017-04-02T08:45:34.546Z,42.3
2017-04-02T08:46:44.487Z,42.19
2017-04-02T08:47:54.726Z,42.19
2017-04-02T08:49:04.036Z,42.4
2017-04-02T08:50:13.967Z,42.19
2017-04-02T08:51:23.898Z,42.4
2017-04-02T08:52:34.148Z,42.21
2017-04-02T08:53:44.389Z,42.19
2017-04-02T08:54:54.319Z,42.3
2017-04-02T08:56:03.935Z,42.3
2017-04-02T08:57:13.897Z,42.3
2017-04-02T08:58:23.513Z,42.11
2017-04-02T08:59:33.443Z,42.3
2017-04-02T09:00:43.059Z,42.21
2017-04-02T09:01:53.316Z,42.28
2017-04-02T09:03:03.243Z,42.21
2017-04-02T09:04:13.173Z,42.3
2017-04-02T09:05:22.474Z,42.21
2017-04-02T09:06:32.717Z,42.19
2017-04-02T09:07:42.645Z,42.11
2017-04-02T09:08:52.261Z,42.21
2017-04-02T09:10:01.879Z,42.49
2017-04-02T09:11:12.122Z,42.3
2017-04-02T09:12:21.750Z,42.4
2017-04-02T09:13:31.055Z,42.3
2017-04-02T09:14:41.301Z,42.3
2017-04-02T09:15:51.551Z,42.3
2017-04-02T09:17:01.475Z,42.4
2017-04-02T09:18:11.404Z,42.21
2017-04-02T09:19:21.335Z,42.3
2017-04-02T09:20:31.268Z,42.4
2017-04-02T09:21:41.514Z,42.3
2017-04-02T09:22:51.457Z,42.3
2017-04-02T09:24:01.395Z,42.3
2017-04-02T09:25:11.325Z,42.3
2017-04-02T09:26:21.256Z,42.4
2017-04-02T09:27:31.182Z,42.59
2017-04-02T09:28:41.108Z,42.3
2017-04-02T09:29:51.350Z,42.4
2017-04-02T09:31:01.598Z,42.4
2017-04-02T09:32:11.835Z,42.49
2017-04-02T09:33:21.763Z,42.4
2017-04-02T09:34:31.703Z,42.3
2017-04-02T09:35:41.637Z,42.69
2017-04-02T09:36:51.882Z,42.3
2017-04-02T09:38:02.127Z,42.59
2017-04-02T09:39:12.374Z,42.3
2017-04-02T09:40:21.674Z,42.59
2017-04-02T09:41:31.610Z,42.3
2017-04-02T09:42:41.848Z,42.4
2017-04-02T09:43:51.459Z,42.49
2017-04-02T09:45:01.699Z,42.59
2017-04-02T09:46:11.643Z,42.49
2017-04-02T09:47:21.888Z,42.4
2017-04-02T09:48:31.817Z,42.4
2017-04-02T09:49:42.059Z,42.49
2017-04-02T09:50:51.983Z,42.59
2017-04-02T09:52:01.913Z,42.49
2017-04-02T09:53:11.844Z,42.59
2017-04-02T09:54:22.082Z,42.69
2017-04-02T09:55:32.322Z,42.79
2017-04-02T09:56:42.559Z,42.59
2017-04-02T09:57:52.490Z,42.49
2017-04-02T09:59:02.411Z,42.49
2017-04-02T10:00:12.656Z,42.59
2017-04-02T10:01:22.902Z,42.69
2017-04-02T10:02:32.831Z,42.49
2017-04-02T10:03:43.071Z,42.49
2017-04-02T10:04:52.684Z,42.4
2017-04-02T10:06:02.939Z,42.59
2017-04-02T10:07:12.555Z,42.3
2017-04-02T10:08:22.793Z,42.4
2017-04-02T10:09:33.032Z,42.4
2017-04-02T10:10:42.652Z,42.4
2017-04-02T10:11:51.959Z,42.59
2017-04-02T10:13:01.893Z,42.49
2017-04-02T10:14:12.137Z,42.4
2017-04-02T10:15:22.083Z,42.59
2017-04-02T10:16:32.327Z,42.49
2017-04-02T10:17:42.612Z,42.59
2017-04-02T10:18:52.241Z,42.4
2017-04-02T10:20:02.484Z,42.49
2017-04-02T10:21:11.795Z,42.59
2017-04-02T10:22:21.096Z,42.79
2017-04-02T10:23:31.336Z,42.79
2017-04-02T10:24:41.575Z,42.79
2017-04-02T10:25:51.507Z,42.88
2017-04-02T10:27:01.761Z,42.4
2017-04-02T10:28:11.999Z,42.4
2017-04-02T10:29:21.934Z,42.59
2017-04-02T10:30:31.866Z,42.59
2017-04-02T10:31:41.483Z,42.79
2017-04-02T10:32:51.412Z,42.3
2017-04-02T10:34:01.029Z,42.79
2017-04-02T10:35:10.962Z,42.88
2017-04-02T10:36:20.579Z,42.88
2017-04-02T10:37:30.514Z,42.79
2017-04-02T10:38:40.137Z,42.69
2017-04-02T10:39:50.103Z,42.49
2017-04-02T10:41:00.347Z,42.79
2017-04-02T10:42:10.594Z,42.88
2017-04-02T10:43:20.209Z,42.69
2017-04-02T10:44:30.149Z,42.79
2017-04-02T10:45:40.076Z,42.69
2017-04-02T10:46:50.014Z,42.79
2017-04-02T10:47:59.949Z,42.69
2017-04-02T10:49:09.889Z,42.79
2017-04-02T10:50:19.503Z,42.79
2017-04-02T10:51:29.114Z,42.69
2017-04-02T10:52:39.048Z,42.69
2017-04-02T10:53:49.292Z,42.69
2017-04-02T10:54:59.522Z,42.69
2017-04-02T10:56:09.454Z,42.79
2017-04-02T10:57:19.691Z,42.49
2017-04-02T10:58:29.939Z,42.4
2017-04-02T10:59:39.862Z,42.4
2017-04-02T11:00:49.791Z,42.59
2017-04-02T11:01:59.414Z,42.79
2017-04-02T11:03:09.700Z,42.4
2017-04-02T11:04:19.628Z,42.59
2017-04-02T11:05:29.241Z,42.4
2017-04-02T11:06:39.173Z,42.79
2017-04-02T11:07:49.099Z,42.79
2017-04-02T11:08:59.342Z,42.79
2017-04-02T11:10:09.580Z,42.79
2017-04-02T11:11:19.547Z,42.69
2017-04-02T11:12:29.169Z,42.49
2017-04-02T11:13:39.413Z,42.4
2017-04-02T11:14:49.334Z,42.59
2017-04-02T11:15:59.569Z,42.69
2017-04-02T11:17:09.822Z,42.69
2017-04-02T11:18:19.438Z,42.79
2017-04-02T11:19:29.065Z,42.49
2017-04-02T11:20:38.366Z,42.4
2017-04-02T11:21:48.306Z,42.88
2017-04-02T11:22:58.245Z,42.69
2017-04-02T11:24:08.181Z,42.79
2017-04-02T11:25:18.428Z,42.79
2017-04-02T11:26:28.401Z,42.79
2017-04-02T11:27:38.327Z,42.79
2017-04-02T11:28:48.250Z,42.69
2017-04-02T11:29:58.180Z,42.3
2017-04-02T11:31:08.127Z,42.79
2017-04-02T11:32:18.371Z,42.79
2017-04-02T11:33:28.302Z,42.79
2017-04-02T11:34:38.561Z,42.69
2017-04-02T11:35:48.494Z,42.79
2017-04-02T11:36:58.431Z,42.59
2017-04-02T11:38:08.674Z,42.79
2017-04-02T11:39:18.599Z,42.79
2017-04-02T11:40:28.540Z,42.79
2017-04-02T11:41:38.782Z,42.88
2017-04-02T11:42:49.015Z,42.59
2017-04-02T11:43:59.255Z,42.3
2017-04-02T11:45:09.189Z,42.19
2017-04-02T11:46:19.127Z,41.99
2017-04-02T11:47:29.390Z,41.8
2017-04-02T11:48:39.316Z,42.19
2017-04-02T11:49:49.239Z,42.38
2017-04-02T11:50:59.163Z,42.09
2017-04-02T11:52:09.405Z,41.8
2017-04-02T11:53:19.649Z,42.09
2017-04-02T11:54:29.266Z,42.16
2017-04-02T11:55:38.888Z,42.36
2017-04-02T11:56:49.123Z,42.26
2017-04-02T11:57:59.368Z,42.26
2017-04-02T11:59:09.616Z,42.07
2017-04-02T12:00:19.872Z,42.16
2017-04-02T12:01:30.109Z,42.26
2017-04-02T12:02:40.354Z,42.38
2017-04-02T12:03:50.278Z,43.05
2017-04-02T12:05:00.516Z,42.47
2017-04-02T12:06:10.760Z,42.57
2017-04-02T12:07:20.691Z,42.38
2017-04-02T12:08:30.309Z,42.47
2017-04-02T12:09:40.238Z,42.28
2017-04-02T12:10:50.166Z,42.57
2017-04-02T12:12:00.410Z,42.86
2017-04-02T12:13:10.337Z,42.86
2017-04-02T12:14:20.572Z,42.76
2017-04-02T12:15:30.186Z,42.96
2017-04-02T12:16:40.431Z,42.96
2017-04-02T12:17:50.671Z,42.79
2017-04-02T12:19:00.914Z,43.15
2017-04-02T12:20:10.843Z,43.24
2017-04-02T12:21:21.110Z,43.07
2017-04-02T12:22:31.049Z,42.79
2017-04-02T12:23:40.995Z,42.97
2017-04-02T12:24:50.941Z,42.96
2017-04-02T12:26:00.863Z,42.88
2017-04-02T12:27:11.108Z,43.27
2017-04-02T12:28:20.718Z,43.07
2017-04-02T12:29:30.643Z,43.07
2017-04-02T12:30:40.887Z,42.97
2017-04-02T12:31:50.819Z,43.17
2017-04-02T12:33:01.056Z,43.55
2017-04-02T12:34:10.678Z,43.17
2017-04-02T12:35:20.620Z,43.55
2017-04-02T12:36:30.556Z,43.55
2017-04-02T12:37:40.486Z,43.46
2017-04-02T12:38:50.730Z,43.27
2017-04-02T12:40:00.975Z,43.37
2017-04-02T12:41:10.903Z,43.55
2017-04-02T12:42:20.835Z,43.37
2017-04-02T12:43:30.766Z,43.46
2017-04-02T12:44:41.022Z,43.55
2017-04-02T12:45:50.951Z,43.46
2017-04-02T12:47:01.192Z,43.37
2017-04-02T12:48:11.432Z,43.55
2017-04-02T12:49:21.364Z,43.55
2017-04-02T12:50:31.606Z,43.85
2017-04-02T12:51:41.853Z,43.75
2017-04-02T12:52:51.772Z,43.94
2017-04-02T12:54:01.697Z,43.37
2017-04-02T12:55:11.318Z,43.75
2017-04-02T12:56:21.567Z,44.04
2017-04-02T12:57:31.179Z,43.94
2017-04-02T12:58:41.110Z,43.75
2017-04-02T12:59:51.031Z,43.85
2017-04-02T13:01:00.961Z,43.55
2017-04-02T13:02:10.894Z,44.04
2017-04-02T13:03:21.129Z,43.85
2017-04-02T13:04:31.371Z,43.75
2017-04-02T13:05:41.298Z,43.37
2017-04-02T13:06:51.542Z,43.27
2017-04-02T13:08:01.477Z,43.46
2017-04-02T13:09:11.094Z,43.65
2017-04-02T13:10:21.341Z,43.46
2017-04-02T13:11:30.956Z,43.55
2017-04-02T13:12:40.887Z,43.55
2017-04-02T13:13:50.535Z,43.46
2017-04-02T13:15:00.779Z,43.46
2017-04-02T13:16:11.072Z,43.75
2017-04-02T13:17:21.010Z,43.94
2017-04-02T13:18:30.937Z,44.04
2017-04-02T13:19:40.861Z,44.71
2017-04-02T13:20:51.148Z,44.71
2017-04-02T13:22:00.762Z,45.68
2017-04-02T13:23:10.688Z,46.73
2017-04-02T13:24:20.932Z,46.55
2017-04-02T13:25:31.177Z,46.83
2017-04-02T13:26:41.110Z,46.93
2017-04-02T13:27:51.361Z,46.45
2017-04-02T13:29:00.972Z,47.7
2017-04-02T13:30:11.212Z,48.18
2017-04-02T13:31:21.142Z,48.38
2017-04-02T13:32:31.066Z,48.08
2017-04-02T13:33:40.995Z,47.41
2017-04-02T13:34:50.966Z,47.31
2017-04-02T13:36:01.210Z,47.7
2017-04-02T13:37:11.457Z,47.31
2017-04-02T13:38:21.702Z,47.51
2017-04-02T13:39:31.323Z,47.22
2017-04-02T13:40:41.566Z,47.22
2017-04-02T13:41:51.807Z,47.51
2017-04-02T13:43:02.046Z,47.6
2017-04-02T13:44:12.294Z,47.22
2017-04-02T13:45:22.534Z,47.7
2017-04-02T13:46:32.148Z,46.55
2017-04-02T13:47:42.383Z,46.73
2017-04-02T13:48:52.307Z,46.93
2017-04-02T13:50:02.278Z,46.25
2017-04-02T13:51:12.205Z,46.35
2017-04-02T13:52:22.130Z,45.97
2017-04-02T13:53:31.746Z,46.73
2017-04-02T13:54:41.994Z,46.35
2017-04-02T13:55:52.236Z,46.64
2017-04-02T13:57:02.471Z,46.83
2017-04-02T13:58:12.719Z,46.35
2017-04-02T13:59:22.961Z,46.83
2017-04-02T14:00:33.201Z,46.73
2017-04-02T14:01:43.486Z,46.35
2017-04-02T14:02:53.416Z,46.83
2017-04-02T14:04:03.663Z,46.64
2017-04-02T14:05:13.917Z,47.03
2017-04-02T14:06:24.154Z,46.45
2017-04-02T14:07:34.400Z,46.64
2017-04-02T14:08:44.010Z,46.83
2017-04-02T14:09:54.261Z,46.83
2017-04-02T14:11:04.200Z,47.03
2017-04-02T14:12:14.441Z,46.83
2017-04-02T14:13:24.460Z,46.64
2017-04-02T14:14:34.421Z,46.73
2017-04-02T14:15:43.728Z,46.55
2017-04-02T14:16:53.343Z,46.35
2017-04-02T14:18:03.583Z,46.64
2017-04-02T14:19:13.511Z,46.73
2017-04-02T14:20:23.753Z,46.06
2017-04-02T14:21:33.683Z,46.55
2017-04-02T14:22:43.300Z,46.45
2017-04-02T14:23:53.235Z,46.45
2017-04-02T14:25:03.478Z,45.21
2017-04-02T14:26:13.098Z,42.79
2017-04-02T14:27:23.381Z,42.3
2017-04-02T14:28:33.621Z,42.4
2017-04-02T14:29:43.245Z,42.67
2017-04-02T14:30:53.170Z,43.73
2017-04-02T14:32:03.105Z,44.59
2017-04-02T14:33:12.765Z,45
2017-04-02T14:34:23.008Z,45.58
2017-04-02T14:35:32.935Z,45.39
2017-04-02T14:36:43.178Z,45
2017-04-02T14:37:52.797Z,45.58
2017-04-02T14:39:02.439Z,45.2
2017-04-02T14:40:12.367Z,45.48
2017-04-02T14:41:22.606Z,45.58
2017-04-02T14:42:32.537Z,45
2017-04-02T14:43:42.463Z,45.48
2017-04-02T14:44:52.082Z,44.9
2017-04-02T14:46:02.322Z,45.58
2017-04-02T14:47:12.560Z,45.1
2017-04-02T14:48:22.486Z,44.81
2017-04-02T14:49:32.417Z,45
2017-04-02T14:50:42.343Z,44.81
2017-04-02T14:51:52.273Z,43.94
2017-04-02T14:53:01.886Z,43.94
2017-04-02T14:54:12.125Z,44.71
2017-04-02T14:55:22.364Z,44.71
2017-04-02T14:56:31.993Z,44.9
2017-04-02T14:57:41.925Z,44.81
2017-04-02T14:58:51.856Z,45.1
2017-04-02T15:00:01.480Z,45
2017-04-02T15:01:11.734Z,44.9
2017-04-02T15:02:21.687Z,45.2
2017-04-02T15:03:31.933Z,45.58
2017-04-02T15:04:42.173Z,45